Time;durP1;ratioP1;P1;durP2;ratioP2;P2;SDS_P1;SDS_P2;PMS_P1;PMS_P2;Temp;Humidity;BMP_temperature;BMP_pressure;BME280_temperature;BME280_humidity;BME280_pressure;Samples;Min_cycle;Max_cycle;Signal;HPM_P1;HPM_P2
2022/12/11 00:00:40;;;;;;;11.35;6.03;;;-2.50;99.90;;;;;;5023820;28;20105;-69
2022/12/11 00:03:06;;;;;;;14.25;7.03;;;-2.40;99.90;;;;;;5007009;28;20029;-69
2022/12/11 00:05:32;;;;;;;20.10;7.43;;;-2.40;99.90;;;;;;5006828;28;20036;-69
2022/12/11 00:07:58;;;;;;;8.98;6.03;;;-2.30;99.90;;;;;;5006871;28;20025;-70
2022/12/11 00:10:24;;;;;;;16.58;6.68;;;-2.30;99.90;;;;;;5024087;28;20472;-70
2022/12/11 00:12:50;;;;;;;14.57;7.63;;;-2.30;99.90;;;;;;5006026;28;20033;-70
2022/12/11 00:15:17;;;;;;;8.07;4.82;;;-2.30;99.90;;;;;;5008697;28;20104;-69
2022/12/11 00:17:43;;;;;;;10.15;5.25;;;-2.20;99.90;;;;;;5004873;28;20033;-69
2022/12/11 00:20:09;;;;;;;10.02;5.25;;;-2.20;99.90;;;;;;5026461;28;20503;-70
2022/12/11 00:22:35;;;;;;;9.98;5.22;;;-2.10;99.90;;;;;;5021480;28;20028;-70
2022/12/11 00:25:00;;;;;;;6.10;5.05;;;-2.00;99.90;;;;;;5009923;28;20113;-71
2022/12/11 00:27:26;;;;;;;11.63;7.03;;;-2.00;99.90;;;;;;5002815;28;20033;-71
2022/12/11 00:29:52;;;;;;;16.10;7.88;;;-2.00;99.90;;;;;;5027995;28;20057;-71
2022/12/11 00:32:18;;;;;;;11.27;5.43;;;-1.90;99.90;;;;;;5002788;28;20030;-70
2022/12/11 00:34:43;;;;;;;17.92;6.10;;;-1.90;99.90;;;;;;5028416;28;20047;-69
2022/12/11 00:37:09;;;;;;;9.73;6.10;;;-1.90;99.90;;;;;;5020447;28;20026;-70
2022/12/11 00:39:37;;;;;;;12.30;7.40;;;-1.80;99.90;;;;;;5028440;28;20033;-69
2022/12/11 00:42:03;;;;;;;14.68;9.13;;;-1.80;99.90;;;;;;5019184;28;20177;-71
2022/12/11 00:44:28;;;;;;;15.95;6.97;;;-1.70;99.90;;;;;;5028558;28;20112;-70
2022/12/11 00:46:54;;;;;;;14.50;8.60;;;-1.70;99.90;;;;;;5019658;28;20488;-70
2022/12/11 00:49:20;;;;;;;10.85;6.35;;;-1.70;99.90;;;;;;5026735;28;20038;-70
2022/12/11 00:51:45;;;;;;;11.48;6.53;;;-1.60;99.90;;;;;;5020652;28;20033;-70
2022/12/11 00:54:11;;;;;;;13.98;6.25;;;-1.60;99.90;;;;;;5026094;28;20044;-70
2022/12/11 00:56:37;;;;;;;16.40;6.93;;;-1.50;99.90;;;;;;5021756;28;20041;-70
2022/12/11 00:59:02;;;;;;;12.95;7.07;;;-1.50;99.90;;;;;;5024192;28;20202;-70
2022/12/11 01:01:28;;;;;;;11.40;5.57;;;-1.40;99.90;;;;;;5022825;28;20033;-70
2022/12/11 01:03:54;;;;;;;11.98;5.90;;;-1.40;99.90;;;;;;5027900;28;20109;-70
2022/12/11 01:06:23;;;;;;;12.07;5.10;;;-1.50;99.90;;;;;;5017328;28;20492;-70
2022/12/11 01:10:22;;;;;;;9.38;5.18;;;-1.40;99.90;;;;;;5005304;28;20052;-70
2022/12/11 01:11:35;;;;;;;9.23;5.28;;;-1.40;99.90;;;;;;5021327;28;20095;-70
2022/12/11 01:14:00;;;;;;;15.90;5.93;;;-1.40;99.90;;;;;;5024287;28;20034;-70
2022/12/11 01:16:26;;;;;;;12.50;7.30;;;-1.40;99.90;;;;;;5023079;28;20047;-70
2022/12/11 01:18:52;;;;;;;14.77;6.55;;;-1.40;99.90;;;;;;5022447;28;20045;-69
2022/12/11 01:21:18;;;;;;;12.45;5.78;;;-1.40;99.90;;;;;;5022265;28;20022;-70
2022/12/11 01:23:43;;;;;;;8.65;6.32;;;-1.30;99.90;;;;;;5018098;28;20057;-70
2022/12/11 01:26:13;;;;;;;12.63;6.13;;;-1.30;99.90;;;;;;4998922;28;20033;-71
2022/12/11 01:28:40;;;;;;;17.45;8.43;;;-1.30;99.90;;;;;;5005333;28;20205;-70
2022/12/11 01:31:15;;;;;;;7.90;4.68;;;-1.30;99.90;;;;;;5005489;28;20104;-70
2022/12/11 01:33:41;;;;;;;10.00;5.38;;;-1.30;99.90;;;;;;5022400;28;20512;-70
2022/12/11 01:36:14;;;;;;;14.27;6.65;;;-1.30;99.90;;;;;;5005610;28;20400;-70
2022/12/11 01:38:40;;;;;;;14.95;5.80;;;-1.30;99.90;;;;;;5022476;28;20393;-71
2022/12/11 01:41:07;;;;;;;17.00;5.85;;;-1.30;99.90;;;;;;5005300;28;20053;-71
2022/12/11 01:43:33;;;;;;;10.05;4.50;;;-1.30;99.90;;;;;;5022745;28;20097;-71
2022/12/11 01:45:58;;;;;;;10.63;5.80;;;-1.20;99.90;;;;;;5022563;28;20481;-69
2022/12/11 01:48:31;;;;;;;17.63;7.75;;;-1.20;99.90;;;;;;5022609;28;20025;-69
2022/12/11 01:51:04;;;;;;;13.77;5.85;;;-1.20;99.90;;;;;;5004835;28;20033;-69
2022/12/11 01:53:38;;;;;;;11.93;7.53;;;-1.20;99.90;;;;;;5022999;28;20083;-69
2022/12/11 01:56:07;;;;;;;9.50;6.13;;;-1.20;99.90;;;;;;5005745;28;20397;-69
2022/12/11 01:58:41;;;;;;;8.52;5.85;;;-1.30;99.90;;;;;;5022478;28;20097;-70
2022/12/11 02:01:13;;;;;;;13.55;8.50;;;-1.30;99.90;;;;;;5005418;28;20061;-69
2022/12/11 02:03:39;;;;;;;10.88;6.03;;;-1.40;99.90;;;;;;5005227;28;20504;-70
2022/12/11 02:06:05;;;;;;;7.45;4.80;;;-1.30;99.90;;;;;;5002824;28;20092;-70
2022/12/11 02:08:31;;;;;;;13.23;6.57;;;-1.40;99.90;;;;;;5009379;28;20022;-70
2022/12/11 02:11:03;;;;;;;9.40;7.30;;;-1.30;99.90;;;;;;4995177;28;20037;-70
2022/12/11 02:13:54;;;;;;;8.20;5.13;;;-1.30;99.90;;;;;;5022021;28;20104;-70
2022/12/11 02:16:36;;;;;;;10.38;4.88;;;-1.30;99.90;;;;;;5021455;28;20033;-70
2022/12/11 02:19:20;;;;;;;11.88;6.28;;;-1.30;99.90;;;;;;4999901;28;20401;-70
2022/12/11 02:21:52;;;;;;;10.85;5.95;;;-1.20;99.90;;;;;;5003390;28;20041;-70
2022/12/11 02:25:03;;;;;;;8.68;5.70;;;-1.40;99.90;;;;;;4997752;28;20030;-70
2022/12/11 02:27:44;;;;;;;8.68;5.90;;;-1.50;99.90;;;;;;4998952;28;20041;-70
2022/12/11 02:30:14;;;;;;;18.45;6.93;;;-1.60;99.90;;;;;;5007960;28;20030;-70
2022/12/11 02:32:48;;;;;;;8.75;5.10;;;-1.70;99.90;;;;;;5002863;28;20026;-69
2022/12/11 02:35:23;;;;;;;6.47;4.55;;;-1.80;99.90;;;;;;5023751;28;20576;-69
2022/12/11 02:38:00;;;;;;;13.75;4.65;;;-1.80;99.90;;;;;;5004013;28;20036;-70
2022/12/11 02:40:31;;;;;;;21.58;7.88;;;-1.80;99.90;;;;;;5005476;28;20030;-71
2022/12/11 02:43:01;;;;;;;20.48;5.85;;;-1.80;99.90;;;;;;4994036;28;20473;-70
2022/12/11 02:45:28;;;;;;;8.15;5.22;;;-1.80;99.90;;;;;;4992825;28;20030;-70
2022/12/11 02:47:57;;;;;;;13.23;5.40;;;-1.80;99.90;;;;;;5018465;28;20056;-70
2022/12/11 02:50:25;;;;;;;13.25;4.90;;;-1.80;99.90;;;;;;5008962;28;20030;-70
2022/12/11 02:52:54;;;;;;;10.65;5.95;;;-1.80;99.90;;;;;;5003943;28;20025;-70
2022/12/11 02:55:22;;;;;;;13.68;7.15;;;-1.80;99.90;;;;;;5006039;28;20724;-70
2022/12/11 02:58:18;;;;;;;6.68;3.88;;;-1.80;99.90;;;;;;5020625;28;20104;-70
2022/12/11 03:00:45;;;;;;;10.23;5.30;;;-1.80;99.90;;;;;;5021366;28;20040;-70
2022/12/11 03:03:11;;;;;;;8.45;4.45;;;-1.90;99.90;;;;;;5003820;28;20026;-70
2022/12/11 03:05:38;;;;;;;6.25;5.35;;;-1.80;99.90;;;;;;5004510;28;20036;-70
2022/12/11 03:08:04;;;;;;;22.10;7.90;;;-1.80;99.90;;;;;;5004273;28;20083;-69
2022/12/11 03:10:30;;;;;;;9.48;4.60;;;-1.70;99.90;;;;;;5004372;28;20555;-70
2022/12/11 03:12:58;;;;;;;10.85;5.75;;;-1.70;99.90;;;;;;5021499;28;20033;-70
2022/12/11 03:15:50;;;;;;;17.13;6.13;;;-1.60;99.90;;;;;;5002628;28;20029;-70
2022/12/11 03:18:38;;;;;;;9.63;5.57;;;-1.60;99.90;;;;;;4996402;28;20029;-70
2022/12/11 03:21:12;;;;;;;7.70;5.10;;;-1.60;99.90;;;;;;5013981;28;20397;-70
2022/12/11 03:23:47;;;;;;;10.63;5.05;;;-1.50;99.90;;;;;;5008497;28;20029;-70
2022/12/11 03:26:16;;;;;;;20.02;6.30;;;-1.50;99.90;;;;;;5025115;28;20034;-70
2022/12/11 03:28:53;;;;;;;16.70;6.72;;;-1.50;99.90;;;;;;5007680;28;20439;-69
2022/12/11 03:31:44;;;;;;;7.50;6.30;;;-1.50;99.90;;;;;;5008146;28;20029;-70
2022/12/11 03:34:26;;;;;;;8.85;3.45;;;-1.50;99.90;;;;;;5021579;28;20518;-70
2022/12/11 03:36:54;;;;;;;8.10;5.28;;;-1.50;99.90;;;;;;5005268;28;20375;-69
2022/12/11 03:39:31;;;;;;;12.00;5.50;;;-1.50;99.90;;;;;;5010888;28;20908;-69
2022/12/11 03:42:01;;;;;;;10.38;6.38;;;-1.50;99.90;;;;;;5003734;28;20038;-69
2022/12/11 03:44:30;;;;;;;8.63;4.78;;;-1.40;99.90;;;;;;4997981;28;20128;-69
2022/12/11 03:46:58;;;;;;;12.73;6.85;;;-1.30;99.90;;;;;;5003236;28;20030;-70
2022/12/11 03:49:30;;;;;;;9.43;6.53;;;-1.30;99.90;;;;;;4995119;28;20491;-70
2022/12/11 03:51:59;;;;;;;15.38;6.53;;;-1.20;99.90;;;;;;5003883;28;20029;-70
2022/12/11 03:54:25;;;;;;;8.73;4.80;;;-1.20;99.90;;;;;;4985673;28;20040;-69
2022/12/11 03:56:56;;;;;;;9.95;5.68;;;-1.30;99.90;;;;;;5002860;28;20113;-70
2022/12/11 03:59:22;;;;;;;;;;;-1.30;99.90;;;;;;5011384;28;20033;-70
2022/12/11 04:01:49;;;;;;;9.32;6.25;;;-1.30;99.90;;;;;;5004517;28;19975;-69
2022/12/11 04:04:16;;;;;;;9.50;6.28;;;-1.30;99.90;;;;;;5009385;28;20025;-70
2022/12/11 04:06:42;;;;;;;7.82;5.28;;;-1.20;99.90;;;;;;5022273;28;20489;-70
2022/12/11 04:09:08;;;;;;;17.35;5.95;;;-1.20;99.90;;;;;;5008713;28;20032;-70
2022/12/11 04:11:33;;;;;;;9.98;6.03;;;-1.20;99.90;;;;;;5026705;22;20042;-70
2022/12/11 04:16:58;;;;;;;8.02;5.55;;;-1.30;99.90;;;;;;5013447;28;20539;-69
2022/12/11 04:25:00;;;;;;;7.55;5.20;;;-1.40;99.90;;;;;;4978616;28;20113;-69
2022/12/11 04:28:08;;;;;;;9.65;4.32;;;-1.40;99.90;;;;;;5020447;28;20099;-69
2022/12/11 04:30:23;;;;;;;12.05;6.68;;;-1.50;99.90;;;;;;4992112;28;20049;-70
2022/12/11 04:32:52;;;;;;;7.45;4.75;;;-1.50;99.90;;;;;;4988846;28;20437;-69
2022/12/11 04:35:19;;;;;;;10.27;5.28;;;-1.50;99.90;;;;;;5026800;28;20057;-70
2022/12/11 04:37:45;;;;;;;11.55;4.80;;;-1.50;99.90;;;;;;5005091;28;20033;-68
2022/12/11 04:40:15;;;;;;;7.82;5.07;;;-1.50;99.90;;;;;;5027843;28;20074;-68
2022/12/11 04:42:41;;;;;;;10.63;6.47;;;-1.40;99.90;;;;;;4986448;28;20065;-68
2022/12/11 04:45:08;;;;;;;17.25;7.55;;;-1.40;99.90;;;;;;5028405;28;20029;-68
2022/12/11 04:47:37;;;;;;;8.48;4.95;;;-1.40;99.90;;;;;;5020373;28;20386;-69
2022/12/11 04:50:05;;;;;;;20.45;7.10;;;-1.40;99.90;;;;;;4984887;28;20375;-69
2022/12/11 04:52:31;;;;;;;24.10;6.40;;;-1.40;99.90;;;;;;5020340;28;20096;-68
2022/12/11 04:54:57;;;;;;;9.80;5.80;;;-1.40;99.90;;;;;;5029584;28;20522;-68
2022/12/11 04:57:22;;;;;;;9.82;5.78;;;-1.30;99.90;;;;;;5002188;28;20033;-68
2022/12/11 04:59:48;;;;;;;15.80;7.97;;;-1.30;99.90;;;;;;5030441;28;20056;-69
2022/12/11 05:02:15;;;;;;;17.25;7.50;;;-1.30;99.90;;;;;;5018959;28;20061;-69
2022/12/11 05:04:42;;;;;;;16.35;9.00;;;-1.30;99.90;;;;;;5029618;28;20546;-69
2022/12/11 05:07:08;;;;;;;11.63;6.13;;;-1.30;99.90;;;;;;5002814;28;20041;-69
2022/12/11 05:09:35;;;;;;;14.85;8.27;;;-1.30;99.90;;;;;;5028190;28;20025;-68
2022/12/11 05:12:01;;;;;;;14.95;6.93;;;-1.30;99.90;;;;;;5020269;28;20541;-69
2022/12/11 05:14:30;;;;;;;15.45;8.80;;;-1.30;99.90;;;;;;5025608;28;20069;-68
2022/12/11 05:16:57;;;;;;;11.57;8.18;;;-1.30;99.90;;;;;;5018668;28;20029;-69
2022/12/11 05:19:24;;;;;;;11.23;6.50;;;-1.30;99.90;;;;;;5026679;28;20095;-69
2022/12/11 05:21:49;;;;;;;12.75;8.02;;;-1.30;99.90;;;;;;5021831;28;20562;-69
2022/12/11 05:24:15;;;;;;;19.23;7.95;;;-1.40;99.90;;;;;;5025969;28;20041;-69
2022/12/11 05:26:41;;;;;;;14.88;6.55;;;-1.40;99.90;;;;;;5022727;28;20116;-68
2022/12/11 05:29:06;;;;;;;17.60;8.68;;;-1.50;99.90;;;;;;5024409;28;20037;-69
2022/12/11 05:31:32;;;;;;;11.68;9.35;;;-1.50;99.90;;;;;;5006707;28;20477;-69
2022/12/11 05:33:58;;;;;;;11.57;5.97;;;-1.50;99.90;;;;;;5023442;28;20036;-69
2022/12/11 05:36:31;;;;;;;10.05;5.78;;;-1.50;99.90;;;;;;5024919;28;20510;-69
2022/12/11 05:38:58;;;;;;;14.77;7.55;;;-1.60;99.90;;;;;;5015351;28;20065;-68
2022/12/11 05:41:26;;;;;;;9.02;7.05;;;-1.60;99.90;;;;;;5024409;28;20104;-69
2022/12/11 05:43:52;;;;;;;11.38;6.38;;;-1.60;99.90;;;;;;5011340;28;20022;-69
2022/12/11 05:46:24;;;;;;;19.80;8.23;;;-1.50;99.90;;;;;;4999854;28;20396;-69
2022/12/11 05:48:54;;;;;;;13.82;6.70;;;-1.50;99.90;;;;;;5022316;28;20033;-68
2022/12/11 05:51:20;;;;;;;9.80;6.00;;;-1.50;99.90;;;;;;4995712;28;20026;-68
2022/12/11 05:53:48;;;;;;;11.13;7.25;;;-1.50;99.90;;;;;;5022378;28;20065;-69
2022/12/11 05:56:18;;;;;;;19.77;7.30;;;-1.50;99.90;;;;;;5024500;28;20041;-69
2022/12/11 05:58:46;;;;;;;19.80;8.57;;;-1.50;99.90;;;;;;5005046;28;20072;-69
2022/12/11 06:01:25;;;;;;;15.13;7.03;;;-1.50;99.90;;;;;;5007143;28;20485;-69
2022/12/11 06:03:52;;;;;;;11.13;6.03;;;-1.60;99.90;;;;;;5004774;28;20287;-69
2022/12/11 06:06:19;;;;;;;11.82;8.15;;;-1.60;99.90;;;;;;5007386;28;20045;-68
2022/12/11 06:08:45;;;;;;;15.25;7.45;;;-1.50;99.90;;;;;;5022121;28;20044;-69
2022/12/11 06:11:13;;;;;;;21.38;8.43;;;-1.50;99.90;;;;;;5006414;28;20037;-68
2022/12/11 06:13:39;;;;;;;11.05;7.03;;;-1.60;99.90;;;;;;5022064;28;20025;-68
2022/12/11 06:16:06;;;;;;;9.52;6.85;;;-1.60;99.90;;;;;;5019074;28;20033;-69
2022/12/11 06:18:41;;;;;;;7.75;5.47;;;-1.60;99.90;;;;;;5004561;28;20511;-68
2022/12/11 06:21:33;;;;;;;11.90;8.15;;;-1.60;99.90;;;;;;5023277;28;20461;-69
2022/12/11 06:24:02;;;;;;;12.73;6.15;;;-1.70;99.90;;;;;;5011355;28;20045;-69
2022/12/11 06:26:28;;;;;;;14.52;8.10;;;-1.60;99.90;;;;;;5023894;28;20030;-69
2022/12/11 06:28:54;;;;;;;17.08;7.45;;;-1.60;99.90;;;;;;4996710;28;20034;-69
2022/12/11 06:31:20;;;;;;;7.90;5.70;;;-1.60;99.90;;;;;;5023934;28;20032;-69
2022/12/11 06:33:46;;;;;;;6.07;4.15;;;-1.70;99.90;;;;;;5021948;28;20032;-68
2022/12/11 06:36:16;;;;;;;17.17;7.40;;;-1.70;99.90;;;;;;5001780;28;20623;-68
2022/12/11 06:38:43;;;;;;;14.80;5.30;;;-1.70;99.90;;;;;;5001207;28;20037;-68
2022/12/11 06:41:09;;;;;;;10.23;5.72;;;-1.70;99.90;;;;;;5014625;28;20045;-68
2022/12/11 06:43:37;;;;;;;17.27;7.18;;;-1.70;99.90;;;;;;5012186;28;20037;-68
2022/12/11 06:46:10;;;;;;;10.95;4.32;;;-1.70;99.90;;;;;;5006974;28;20040;-71
2022/12/11 06:48:36;;;;;;;12.48;4.82;;;-1.80;99.90;;;;;;5021637;28;20032;-69
2022/12/11 06:51:18;;;;;;;13.93;6.45;;;-1.70;99.90;;;;;;5006822;28;20030;-69
2022/12/11 06:53:44;;;;;;;11.10;6.40;;;-1.80;99.90;;;;;;5004790;28;20029;-69
2022/12/11 06:56:13;;;;;;;10.90;7.07;;;-1.70;99.90;;;;;;5023863;28;20033;-69
2022/12/11 06:58:41;;;;;;;12.45;6.72;;;-1.70;99.90;;;;;;5025258;28;20041;-70
2022/12/11 07:01:33;;;;;;;12.13;8.18;;;-1.70;99.90;;;;;;5004324;28;20034;-70
2022/12/11 07:03:59;;;;;;;11.30;4.55;;;-1.70;99.90;;;;;;5016324;28;20052;-70
2022/12/11 07:06:27;;;;;;;8.30;6.05;;;-1.70;99.90;;;;;;5010554;28;20444;-70
2022/12/11 07:08:53;;;;;;;14.25;6.65;;;-1.70;99.90;;;;;;5025348;28;20025;-70
2022/12/11 07:11:20;;;;;;;12.43;6.80;;;-1.80;99.90;;;;;;5027420;28;20101;-70
2022/12/11 07:13:46;;;;;;;7.15;5.57;;;-1.70;99.90;;;;;;5025770;28;20018;-69
2022/12/11 07:16:15;;;;;;;10.70;5.90;;;-1.70;99.90;;;;;;5010412;28;20072;-71
2022/12/11 07:18:47;;;;;;;18.77;8.63;;;-1.70;99.90;;;;;;5007783;28;20489;-69
2022/12/11 07:21:13;;;;;;;11.68;5.47;;;-1.70;99.90;;;;;;5027029;28;20037;-68
2022/12/11 07:23:40;;;;;;;6.80;6.18;;;-1.70;99.90;;;;;;5025407;28;20029;-69
2022/12/11 07:26:12;;;;;;;18.75;8.00;;;-1.70;99.90;;;;;;5010073;28;20056;-70
2022/12/11 07:28:39;;;;;;;10.65;6.93;;;-1.70;99.90;;;;;;5007497;28;20504;-67
2022/12/11 07:31:15;;;;;;;22.75;8.02;;;-1.80;99.90;;;;;;4978315;28;20050;-69
2022/12/11 07:33:42;;;;;;;14.07;6.78;;;-1.70;99.90;;;;;;5002801;28;20069;-65
2022/12/11 07:36:10;;;;;;;8.65;6.07;;;-1.70;99.90;;;;;;5003236;28;20133;-67
2022/12/11 07:38:36;;;;;;;13.07;8.00;;;-1.80;99.90;;;;;;4985661;28;20081;-67
2022/12/11 07:41:07;;;;;;;21.38;6.15;;;-1.80;99.90;;;;;;5003859;28;20437;-66
2022/12/11 07:43:34;;;;;;;16.08;8.50;;;-1.80;99.90;;;;;;4990170;28;20108;-68
2022/12/11 07:46:06;;;;;;;10.63;6.15;;;-1.80;99.90;;;;;;5004513;28;20569;-68
2022/12/11 07:48:38;;;;;;;14.77;8.07;;;-1.80;99.90;;;;;;4998626;28;20044;-66
2022/12/11 07:51:26;;;;;;;15.93;7.68;;;-1.80;99.90;;;;;;5005176;28;20026;-67
2022/12/11 07:53:56;;;;;;;14.30;6.65;;;-1.80;99.90;;;;;;5001381;28;20381;-67
2022/12/11 07:56:22;;;;;;;12.10;6.95;;;-1.80;99.90;;;;;;5007006;28;20075;-67
2022/12/11 07:58:48;;;;;;;9.02;5.43;;;-1.80;99.90;;;;;;5012164;28;20042;-68
2022/12/11 08:01:17;;;;;;;23.20;10.57;;;-1.80;99.90;;;;;;5017903;28;20066;-68
2022/12/11 08:03:43;;;;;;;16.48;9.65;;;-1.90;99.90;;;;;;5017910;28;20040;-67
2022/12/11 08:06:09;;;;;;;23.85;8.52;;;-1.80;99.90;;;;;;4991911;28;20109;-67
2022/12/11 08:08:35;;;;;;;15.93;8.50;;;-1.80;99.90;;;;;;4994706;28;20048;-69
2022/12/11 08:11:07;;;;;;;12.20;6.70;;;-1.80;99.90;;;;;;5024030;28;20029;-67
2022/12/11 08:13:33;;;;;;;6.95;4.95;;;-1.70;99.90;;;;;;5008108;28;20056;-67
2022/12/11 08:16:04;;;;;;;15.18;8.10;;;-1.70;99.90;;;;;;5002247;28;20064;-68
2022/12/11 08:18:29;;;;;;;13.60;8.07;;;-1.60;99.90;;;;;;5013613;28;20030;-68
2022/12/11 08:20:55;;;;;;;24.25;6.63;;;-1.70;99.90;;;;;;5002225;28;20096;-69
2022/12/11 08:23:21;;;;;;;11.77;8.00;;;-1.60;99.90;;;;;;5011463;28;20432;-66
2022/12/11 08:25:47;;;;;;;13.02;7.13;;;-1.50;99.90;;;;;;5012965;28;20125;-68
2022/12/11 08:28:12;;;;;;;19.25;7.75;;;-1.40;99.90;;;;;;5012550;28;20109;-68
2022/12/11 08:30:39;;;;;;;20.70;6.93;;;-1.40;99.90;;;;;;4995690;28;20042;-69
2022/12/11 08:33:06;;;;;;;16.83;10.77;;;-1.40;99.90;;;;;;5017524;28;20029;-68
2022/12/11 08:35:32;;;;;;;7.55;5.25;;;-1.30;99.90;;;;;;4998299;28;20433;-68
2022/12/11 08:37:58;;;;;;;10.05;6.57;;;-1.20;99.90;;;;;;5022507;28;20076;-67
2022/12/11 08:40:23;;;;;;;25.25;7.07;;;-1.10;99.90;;;;;;5009662;28;20033;-68
2022/12/11 08:42:50;;;;;;;39.50;10.70;;;-1.10;99.90;;;;;;5014230;28;20026;-68
2022/12/11 08:45:16;;;;;;;16.58;11.15;;;-1.10;99.90;;;;;;5002353;28;20045;-68
2022/12/11 08:47:42;;;;;;;13.00;8.02;;;-1.10;99.90;;;;;;5011496;28;20049;-67
2022/12/11 08:50:08;;;;;;;16.77;9.75;;;-1.10;99.90;;;;;;5017891;28;20022;-67
2022/12/11 08:52:34;;;;;;;19.80;10.93;;;-1.10;99.90;;;;;;5019103;28;20622;-68
2022/12/11 08:55:00;;;;;;;18.70;10.02;;;-1.10;99.90;;;;;;5024476;28;20025;-67
2022/12/11 08:57:27;;;;;;;16.58;7.35;;;-1.20;99.90;;;;;;5024011;28;20044;-67
2022/12/11 08:59:53;;;;;;;16.02;8.82;;;-1.20;99.90;;;;;;5006385;28;20029;-69
2022/12/11 09:02:18;;;;;;;15.05;7.45;;;-1.10;99.90;;;;;;5026954;28;20108;-68
2022/12/11 09:04:44;;;;;;;20.45;10.07;;;-1.10;99.90;;;;;;5025494;28;20037;-68
2022/12/11 09:07:11;;;;;;;26.88;9.43;;;-1.00;99.90;;;;;;5012400;28;20034;-67
2022/12/11 09:09:37;;;;;;;13.48;7.70;;;-1.00;99.90;;;;;;5001597;28;20108;-67
2022/12/11 09:12:03;;;;;;;12.77;6.95;;;-1.00;99.90;;;;;;5024372;28;20038;-68
2022/12/11 09:14:29;;;;;;;14.90;8.70;;;-1.10;99.90;;;;;;5027598;28;20520;-68
2022/12/11 09:16:55;;;;;;;20.00;8.93;;;-1.10;99.90;;;;;;5023143;28;20632;-69
2022/12/11 09:19:21;;;;;;;24.23;8.60;;;-1.00;99.90;;;;;;5009793;28;20029;-69
2022/12/11 09:21:47;;;;;;;19.42;9.10;;;-1.10;99.90;;;;;;5005210;28;20037;-68
2022/12/11 09:24:13;;;;;;;20.50;6.68;;;-1.00;99.90;;;;;;5027930;28;20048;-67
2022/12/11 09:26:40;;;;;;;25.65;10.32;;;-1.00;99.90;;;;;;5005367;28;20566;-70
2022/12/11 09:29:06;;;;;;;25.15;9.57;;;-0.90;99.90;;;;;;5012219;28;20048;-69
2022/12/11 09:31:35;;;;;;;21.60;10.15;;;-0.90;99.90;;;;;;5010051;28;20017;-69
2022/12/11 09:34:05;;;;;;;16.52;6.60;;;-0.90;99.90;;;;;;4999881;28;20049;-69
2022/12/11 09:36:31;;;;;;;16.65;10.63;;;-1.00;99.90;;;;;;4981171;28;20131;-69
2022/12/11 09:39:07;;;;;;;37.47;12.82;;;-0.90;99.90;;;;;;5012678;28;20163;-69
2022/12/11 09:41:45;;;;;;;13.35;7.65;;;-0.80;99.90;;;;;;5004575;28;20116;-69
2022/12/11 09:44:28;;;;;;;11.23;6.63;;;-0.90;99.90;;;;;;5008127;28;20033;-69
2022/12/11 09:46:56;;;;;;;18.95;8.57;;;-0.90;99.90;;;;;;4997907;28;20504;-69
2022/12/11 09:49:35;;;;;;;18.17;9.98;;;-0.90;99.90;;;;;;5009150;28;20036;-69
2022/12/11 09:52:36;;;;;;;8.90;6.40;;;-0.80;99.90;;;;;;5014866;28;20120;-68
2022/12/11 09:55:16;;;;;;;14.55;7.72;;;-0.70;99.90;;;;;;5002601;28;20029;-68
2022/12/11 09:58:18;;;;;;;18.38;9.57;;;-0.70;99.90;;;;;;5011609;28;20051;-69
2022/12/11 10:00:56;;;;;;;18.42;9.88;;;-0.70;99.90;;;;;;5008956;28;20033;-68
2022/12/11 10:04:02;;;;;;;18.25;8.50;;;-0.70;99.90;;;;;;4954527;28;20052;-69
2022/12/11 10:06:54;;;;;;;22.90;9.88;;;-0.60;99.90;;;;;;5014974;28;20038;-70
2022/12/11 10:09:58;;;;;;;29.73;11.77;;;-0.60;99.90;;;;;;5000958;28;20366;-69
2022/12/11 10:13:01;;;;;;;18.83;7.72;;;-0.50;99.90;;;;;;4986758;23;20050;-65
2022/12/11 10:15:42;;;;;;;15.52;10.50;;;-0.40;99.90;;;;;;4945847;28;20043;-66
2022/12/11 10:18:17;;;;;;;23.00;11.63;;;-0.30;99.90;;;;;;4968100;28;20030;-64
2022/12/11 10:20:44;;;;;;;13.30;9.48;;;-0.20;99.90;;;;;;4971901;28;20098;-64
2022/12/11 10:23:45;;;;;;;23.85;9.13;;;-0.20;99.90;;;;;;4949397;28;20028;-64
2022/12/11 10:26:18;;;;;;;27.55;9.05;;;-0.10;99.90;;;;;;4943086;28;20043;-65
2022/12/11 10:28:44;;;;;;;28.88;10.00;;;-0.20;99.90;;;;;;4974943;28;20047;-65
2022/12/11 10:31:35;;;;;;;46.22;16.55;;;-0.10;99.90;;;;;;4952502;28;20395;-66
2022/12/11 10:34:07;;;;;;;;;;;0.00;99.90;;;;;;4967631;28;20113;-66
2022/12/11 10:36:39;;;;;;;18.73;9.88;;;-0.10;99.90;;;;;;4980917;28;19914;-64
2022/12/11 10:39:21;;;;;;;23.48;9.95;;;-0.20;99.90;;;;;;4990015;28;20027;-63
2022/12/11 10:41:53;;;;;;;23.33;9.32;;;-0.30;99.90;;;;;;4962353;28;20110;-63
2022/12/11 10:44:30;;;;;;;20.52;10.15;;;-0.30;99.90;;;;;;4975508;28;20023;-63
2022/12/11 10:47:12;;;;;;;23.98;11.27;;;-0.30;99.90;;;;;;4975298;28;20031;-63
2022/12/11 10:49:53;;;;;;;19.33;7.28;;;-0.30;99.90;;;;;;4968430;28;20126;-64
2022/12/11 10:52:26;;;;;;;25.27;11.00;;;-0.20;99.90;;;;;;4974176;28;20519;-64
2022/12/11 10:55:03;;;;;;;20.92;10.20;;;-0.20;99.90;;;;;;4983618;28;20282;-63
2022/12/11 10:57:35;;;;;;;14.15;7.70;;;-0.30;99.90;;;;;;4978971;28;20034;-63
2022/12/11 11:00:06;;;;;;;16.05;9.18;;;-0.20;99.90;;;;;;4979280;28;20033;-63
2022/12/11 11:02:37;;;;;;;14.95;6.90;;;-0.30;99.90;;;;;;4967797;28;20059;-64
2022/12/11 11:05:35;;;;;;;26.50;11.32;;;-0.20;99.90;;;;;;4958261;28;20449;-63
2022/12/11 11:08:23;;;;;;;18.90;8.02;;;-0.10;99.90;;;;;;4958668;28;20116;-63
2022/12/11 11:10:58;;;;;;;29.50;9.30;;;0.00;99.90;;;;;;4974311;28;20035;-64
2022/12/11 11:13:30;;;;;;;16.75;9.93;;;0.00;99.90;;;;;;4969049;28;20061;-64
2022/12/11 11:16:08;;;;;;;19.45;11.75;;;0.10;99.90;;;;;;4974864;28;20042;-64
2022/12/11 11:18:34;;;;;;;25.42;10.30;;;-0.10;99.90;;;;;;4983703;28;20169;-64
2022/12/11 11:21:01;;;;;;;30.15;12.00;;;0.00;99.90;;;;;;4989490;28;20060;-63
2022/12/11 11:23:28;;;;;;;24.10;10.73;;;0.00;99.90;;;;;;4984043;28;20063;-63
2022/12/11 11:25:59;;;;;;;17.70;8.60;;;0.10;99.90;;;;;;4973488;28;20035;-64
2022/12/11 11:28:34;;;;;;;24.57;7.33;;;0.20;99.90;;;;;;4983465;28;20109;-64
2022/12/11 11:31:05;;;;;;;23.67;12.27;;;0.30;99.90;;;;;;4958993;28;20282;-64
2022/12/11 11:33:33;;;;;;;23.83;10.47;;;0.30;99.90;;;;;;4969225;28;20034;-63
2022/12/11 11:36:06;;;;;;;31.25;13.10;;;0.40;99.90;;;;;;4989145;28;20282;-63
2022/12/11 11:38:49;;;;;;;20.15;10.55;;;0.30;99.90;;;;;;4960485;28;20035;-63
2022/12/11 11:41:28;;;;;;;16.67;8.07;;;0.40;99.90;;;;;;4987182;28;20046;-63
2022/12/11 11:44:04;;;;;;;22.25;10.98;;;0.40;99.90;;;;;;4983540;28;20034;-63
2022/12/11 11:46:44;;;;;;;34.75;12.60;;;0.30;99.90;;;;;;4973047;28;20038;-63
2022/12/11 11:49:28;;;;;;;28.08;9.10;;;0.40;99.90;;;;;;4982797;28;20030;-63
2022/12/11 11:52:20;;;;;;;21.92;8.73;;;0.40;99.90;;;;;;4935354;29;20085;-64
2022/12/11 11:55:21;;;;;;;24.67;7.70;;;0.40;99.90;;;;;;4973211;28;20073;-64
2022/12/11 11:57:48;;;;;;;21.50;7.78;;;0.30;99.90;;;;;;4968402;28;20085;-63
2022/12/11 12:00:16;;;;;;;30.33;10.93;;;0.30;99.90;;;;;;4987380;28;20037;-64
2022/12/11 12:02:42;;;;;;;16.55;8.77;;;0.30;99.90;;;;;;4983366;28;20110;-64
2022/12/11 12:05:16;;;;;;;16.92;9.27;;;0.20;99.90;;;;;;4988426;28;20035;-63
2022/12/11 12:08:08;;;;;;;33.10;11.13;;;0.20;99.90;;;;;;4968004;28;20050;-63
2022/12/11 12:11:03;;;;;;;18.30;6.70;;;0.30;99.90;;;;;;4986839;28;20039;-63
2022/12/11 12:14:01;;;;;;;15.93;10.32;;;0.30;99.90;;;;;;4982995;28;20364;-64
2022/12/11 12:17:19;;;;;;;12.63;6.28;;;0.20;99.90;;;;;;4973722;28;20027;-64
2022/12/11 12:20:25;;;;;;;24.33;8.35;;;0.40;99.90;;;;;;4972112;28;20035;-63
2022/12/11 12:23:06;;;;;;;20.67;7.18;;;0.50;99.90;;;;;;4968304;28;20569;-64
2022/12/11 12:26:25;;;;;;;18.67;8.40;;;0.60;99.90;;;;;;4973939;28;20026;-63
2022/12/11 12:29:11;;;;;;;11.13;6.32;;;0.60;99.90;;;;;;4978588;28;20097;-64
2022/12/11 12:31:59;;;;;;;21.85;6.60;;;0.50;99.90;;;;;;4987668;28;20030;-62
2022/12/11 12:34:27;;;;;;;14.98;6.97;;;0.40;99.90;;;;;;4979925;28;20040;-63
2022/12/11 12:37:30;;;;;;;20.45;9.65;;;0.50;99.90;;;;;;4934847;29;20500;-63
2022/12/11 12:40:57;;;;;;;33.55;9.10;;;0.50;99.90;;;;;;4972617;28;20035;-63
2022/12/11 12:43:53;;;;;;;16.77;8.30;;;0.40;99.90;;;;;;4966936;28;20043;-63
2022/12/11 12:46:57;;;;;;;20.77;7.97;;;0.40;99.90;;;;;;4963610;28;20372;-63
2022/12/11 12:49:47;;;;;;;19.10;8.25;;;0.50;99.90;;;;;;4967634;28;20340;-64
2022/12/11 12:52:28;;;;;;;22.08;9.13;;;0.40;99.90;;;;;;4933313;29;20229;-68
2022/12/11 12:55:21;;;;;;;14.05;7.30;;;0.40;99.90;;;;;;4964568;28;20483;-70
2022/12/11 12:58:23;;;;;;;17.10;8.95;;;0.40;99.90;;;;;;4982466;28;20027;-68
2022/12/11 13:00:48;;;;;;;23.23;11.23;;;0.40;99.90;;;;;;4984233;28;20058;-67
2022/12/11 13:03:28;;;;;;;17.13;10.20;;;0.40;99.90;;;;;;4970303;28;20065;-69
2022/12/11 13:06:08;;;;;;;21.58;10.82;;;0.50;99.90;;;;;;4971869;28;20097;-68
2022/12/11 13:08:46;;;;;;;16.15;7.90;;;0.60;99.90;;;;;;4964380;28;20038;-68
2022/12/11 13:11:16;;;;;;;21.30;8.93;;;0.60;99.90;;;;;;4926530;28;20033;-68
2022/12/11 13:13:49;;;;;;;20.80;10.38;;;0.80;99.90;;;;;;4960193;28;20113;-68
2022/12/11 13:16:15;;;;;;;18.05;8.70;;;0.80;99.90;;;;;;4966349;28;20437;-65